sensor_id;sensor_type;location;lat;lon;timestamp;pressure;altitude;pressure_sealevel;temperature;humidity
52441;BME280;39611;46.062;8.950;2022-10-16T00:01:29;96943.66;;;14.95;100.00
52441;BME280;39611;46.062;8.950;2022-10-16T00:04:00;96941.78;;;14.95;100.00
52441;BME280;39611;46.062;8.950;2022-10-16T00:06:28;96944.25;;;14.92;100.00
52441;BME280;39611;46.062;8.950;2022-10-16T00:08:55;96944.72;;;14.94;100.00
52441;BME280;39611;46.062;8.950;2022-10-16T00:11:24;96946.59;;;14.93;100.00
52441;BME280;39611;46.062;8.950;2022-10-16T00:13:54;96941.44;;;14.83;100.00
52441;BME280;39611;46.062;8.950;2022-10-16T00:16:21;96941.06;;;14.90;100.00
52441;BME280;39611;46.062;8.950;2022-10-16T00:18:47;96943.22;;;14.88;100.00
52441;BME280;39611;46.062;8.950;2022-10-16T00:21:20;96945.75;;;14.79;100.00
52441;BME280;39611;46.062;8.950;2022-10-16T00:23:51;96945.75;;;14.79;100.00
52441;BME280;39611;46.062;8.950;2022-10-16T00:26:18;96946.19;;;14.86;100.00
52441;BME280;39611;46.062;8.950;2022-10-16T00:28:48;96943.50;;;14.86;100.00
52441;BME280;39611;46.062;8.950;2022-10-16T00:31:17;96945.69;;;14.84;100.00
52441;BME280;39611;46.062;8.950;2022-10-16T00:33:44;96939.84;;;14.82;100.00
52441;BME280;39611;46.062;8.950;2022-10-16T00:36:14;96945.97;;;14.82;100.00
52441;BME280;39611;46.062;8.950;2022-10-16T00:38:40;96941.44;;;14.83;100.00
52441;BME280;39611;46.062;8.950;2022-10-16T00:41:11;96936.09;;;14.83;100.00
52441;BME280;39611;46.062;8.950;2022-10-16T00:43:40;96937.69;;;14.84;100.00
52441;BME280;39611;46.062;8.950;2022-10-16T00:46:20;96937.19;;;14.82;100.00
52441;BME280;39611;46.062;8.950;2022-10-16T00:49:06;96954.66;;;14.88;100.00
52441;BME280;39611;46.062;8.950;2022-10-16T00:54:04;96955.25;;;14.85;100.00
52441;BME280;39611;46.062;8.950;2022-10-16T00:56:33;96952.94;;;14.78;100.00
52441;BME280;39611;46.062;8.950;2022-10-16T00:59:03;96950.41;;;14.68;100.00
52441;BME280;39611;46.062;8.950;2022-10-16T01:01:32;96953.97;;;14.63;100.00
52441;BME280;39611;46.062;8.950;2022-10-16T01:03:59;96955.59;;;14.78;100.00
52441;BME280;39611;46.062;8.950;2022-10-16T01:06:38;96941.72;;;14.81;100.00
52441;BME280;39611;46.062;8.950;2022-10-16T01:09:15;96942.09;;;14.75;100.00
52441;BME280;39611;46.062;8.950;2022-10-16T01:12:01;96942.53;;;14.82;100.00
52441;BME280;39611;46.062;8.950;2022-10-16T01:14:50;96948.34;;;14.84;100.00
52441;BME280;39611;46.062;8.950;2022-10-16T01:17:34;96944.31;;;14.87;100.00
52441;BME280;39611;46.062;8.950;2022-10-16T01:20:35;96949.06;;;14.90;100.00
52441;BME280;39611;46.062;8.950;2022-10-16T01:26:19;96937.69;;;14.84;100.00
52441;BME280;39611;46.062;8.950;2022-10-16T01:29:03;96939.19;;;14.90;100.00
52441;BME280;39611;46.062;8.950;2022-10-16T01:31:36;96940.84;;;14.86;100.00
52441;BME280;39611;46.062;8.950;2022-10-16T01:34:06;96943.50;;;14.86;100.00
52441;BME280;39611;46.062;8.950;2022-10-16T01:36:41;96941.44;;;14.83;100.00
52441;BME280;39611;46.062;8.950;2022-10-16T01:39:11;96939.06;;;14.81;100.00
52441;BME280;39611;46.062;8.950;2022-10-16T01:41:43;96932.38;;;14.84;100.00
52441;BME280;39611;46.062;8.950;2022-10-16T01:44:17;96941.50;;;14.78;100.00
52441;BME280;39611;46.062;8.950;2022-10-16T01:46:47;96943.31;;;14.82;100.00
52441;BME280;39611;46.062;8.950;2022-10-16T01:49:17;96942.59;;;14.77;100.00
52441;BME280;39611;46.062;8.950;2022-10-16T01:51:47;96940.19;;;14.75;100.00
52441;BME280;39611;46.062;8.950;2022-10-16T01:54:17;96946.03;;;14.77;100.00
52441;BME280;39611;46.062;8.950;2022-10-16T01:56:46;96946.25;;;14.81;100.00
52441;BME280;39611;46.062;8.950;2022-10-16T01:59:16;96940.38;;;14.84;100.00
52441;BME280;39611;46.062;8.950;2022-10-16T02:01:48;96946.75;;;14.83;100.00
52441;BME280;39611;46.062;8.950;2022-10-16T02:04:22;96941.16;;;14.84;100.00
52441;BME280;39611;46.062;8.950;2022-10-16T02:06:50;96946.75;;;14.83;100.00
52441;BME280;39611;46.062;8.950;2022-10-16T02:09:17;96940.00;;;14.72;100.00
52441;BME280;39611;46.062;8.950;2022-10-16T02:11:44;96937.03;;;14.73;100.00
52441;BME280;39611;46.062;8.950;2022-10-16T02:14:11;96941.44;;;14.83;100.00
52441;BME280;39611;46.062;8.950;2022-10-16T02:16:40;96932.38;;;14.84;100.00
52441;BME280;39611;46.062;8.950;2022-10-16T02:19:08;96940.91;;;14.81;100.00
52441;BME280;39611;46.062;8.950;2022-10-16T02:21:57;96936.97;;;14.78;100.00
52441;BME280;39611;46.062;8.950;2022-10-16T02:24:39;96931.16;;;14.76;100.00
52441;BME280;39611;46.062;8.950;2022-10-16T02:27:34;96932.53;;;14.74;100.00
52441;BME280;39611;46.062;8.950;2022-10-16T02:30:07;96933.50;;;14.78;100.00
52441;BME280;39611;46.062;8.950;2022-10-16T02:32:37;96932.16;;;14.80;100.00
52441;BME280;39611;46.062;8.950;2022-10-16T02:35:06;96931.69;;;14.73;100.00
52441;BME280;39611;46.062;8.950;2022-10-16T02:37:34;96932.53;;;14.74;100.00
52441;BME280;39611;46.062;8.950;2022-10-16T02:40:02;96942.00;;;14.80;100.00
52441;BME280;39611;46.062;8.950;2022-10-16T02:42:36;96947.34;;;14.80;100.00
52441;BME280;39611;46.062;8.950;2022-10-16T02:45:04;96946.25;;;14.81;100.00
52441;BME280;39611;46.062;8.950;2022-10-16T02:47:31;96951.09;;;14.79;100.00
52441;BME280;39611;46.062;8.950;2022-10-16T02:49:57;96955.84;;;14.82;100.00
52441;BME280;39611;46.062;8.950;2022-10-16T02:52:24;96955.84;;;14.82;100.00
52441;BME280;39611;46.062;8.950;2022-10-16T02:54:51;96961.16;;;14.82;100.00
52441;BME280;39611;46.062;8.950;2022-10-16T02:57:18;96959.06;;;14.79;100.00
52441;BME280;39611;46.062;8.950;2022-10-16T02:59:45;96958.41;;;14.68;100.00
52441;BME280;39611;46.062;8.950;2022-10-16T03:02:12;96962.81;;;14.78;100.00
52441;BME280;39611;46.062;8.950;2022-10-16T03:04:38;96960.72;;;14.75;100.00
52441;BME280;39611;46.062;8.950;2022-10-16T03:07:05;96962.28;;;14.76;100.00
52441;BME280;39611;46.062;8.950;2022-10-16T03:09:31;96966.25;;;14.78;100.00
52441;BME280;39611;46.062;8.950;2022-10-16T03:11:58;96967.63;;;14.76;100.00
52441;BME280;39611;46.062;8.950;2022-10-16T03:14:24;96968.13;;;14.78;100.00
52441;BME280;39611;46.062;8.950;2022-10-16T03:16:51;96967.84;;;14.79;100.00
52441;BME280;39611;46.062;8.950;2022-10-16T03:19:17;96970.50;;;14.79;100.00
52441;BME280;39611;46.062;8.950;2022-10-16T03:21:44;96963.91;;;14.77;100.00
52441;BME280;39611;46.062;8.950;2022-10-16T03:24:11;96970.78;;;14.78;100.00
52441;BME280;39611;46.062;8.950;2022-10-16T03:26:37;96972.41;;;14.79;100.00
52441;BME280;39611;46.062;8.950;2022-10-16T03:29:04;96973.97;;;14.80;100.00
52441;BME280;39611;46.062;8.950;2022-10-16T03:31:31;96964.41;;;14.79;100.00
52441;BME280;39611;46.062;8.950;2022-10-16T03:33:57;96964.25;;;14.70;100.00
52441;BME280;39611;46.062;8.950;2022-10-16T03:36:24;96972.28;;;14.65;100.00
52441;BME280;39611;46.062;8.950;2022-10-16T03:38:50;96977.69;;;14.60;100.00
52441;BME280;39611;46.062;8.950;2022-10-16T03:41:17;96980.59;;;14.63;100.00
52441;BME280;39611;46.062;8.950;2022-10-16T03:43:43;96973.38;;;14.64;100.00
52441;BME280;39611;46.062;8.950;2022-10-16T03:46:10;96977.56;;;14.70;100.00
52441;BME280;39611;46.062;8.950;2022-10-16T03:48:36;96979.44;;;14.70;100.00
52441;BME280;39611;46.062;8.950;2022-10-16T03:51:03;96985.84;;;14.69;100.00
52441;BME280;39611;46.062;8.950;2022-10-16T03:53:29;96982.59;;;14.72;100.00
52441;BME280;39611;46.062;8.950;2022-10-16T03:55:55;96980.00;;;14.67;100.00
52441;BME280;39611;46.062;8.950;2022-10-16T03:58:22;96982.16;;;14.64;100.00
52441;BME280;39611;46.062;8.950;2022-10-16T04:00:48;96982.16;;;14.64;100.00
52441;BME280;39611;46.062;8.950;2022-10-16T04:03:15;96981.94;;;14.61;100.00
52441;BME280;39611;46.062;8.950;2022-10-16T04:05:41;96978.97;;;14.62;100.00
52441;BME280;39611;46.062;8.950;2022-10-16T04:08:08;96976.38;;;14.57;100.00
52441;BME280;39611;46.062;8.950;2022-10-16T04:10:34;96984.47;;;14.47;100.00
52441;BME280;39611;46.062;8.950;2022-10-16T04:13:01;96983.16;;;14.45;100.00
52441;BME280;39611;46.062;8.950;2022-10-16T04:15:27;96985.03;;;14.44;100.00
52441;BME280;39611;46.062;8.950;2022-10-16T04:17:54;96986.13;;;14.43;100.00
52441;BME280;39611;46.062;8.950;2022-10-16T04:20:20;96988.22;;;14.46;100.00
52441;BME280;39611;46.062;8.950;2022-10-16T04:22:47;96989.38;;;14.40;100.00
52441;BME280;39611;46.062;8.950;2022-10-16T04:25:13;96992.16;;;14.30;100.00
52441;BME280;39611;46.062;8.950;2022-10-16T04:27:40;96998.25;;;14.30;100.00
52441;BME280;39611;46.062;8.950;2022-10-16T04:30:11;97000.75;;;14.22;100.00
52441;BME280;39611;46.062;8.950;2022-10-16T04:32:37;96996.72;;;14.24;100.00
52441;BME280;39611;46.062;8.950;2022-10-16T04:35:04;97009.13;;;14.34;100.00
52441;BME280;39611;46.062;8.950;2022-10-16T04:37:30;97003.22;;;14.37;100.00
52441;BME280;39611;46.062;8.950;2022-10-16T04:39:57;97002.78;;;14.30;100.00
52441;BME280;39611;46.062;8.950;2022-10-16T04:42:23;97012.91;;;14.28;100.00
52441;BME280;39611;46.062;8.950;2022-10-16T04:44:50;97022.94;;;14.36;100.00
52441;BME280;39611;46.062;8.950;2022-10-16T04:47:16;97014.72;;;14.32;100.00
52441;BME280;39611;46.062;8.950;2022-10-16T04:49:42;97019.25;;;14.32;100.00
52441;BME280;39611;46.062;8.950;2022-10-16T04:52:09;97012.06;;;14.32;100.00
52441;BME280;39611;46.062;8.950;2022-10-16T04:54:35;97015.47;;;14.38;100.00
52441;BME280;39611;46.062;8.950;2022-10-16T04:57:02;97014.69;;;14.37;100.00
52441;BME280;39611;46.062;8.950;2022-10-16T04:59:28;97022.72;;;14.32;100.00
52441;BME280;39611;46.062;8.950;2022-10-16T05:01:55;97014.94;;;14.36;100.00
52441;BME280;39611;46.062;8.950;2022-10-16T05:04:21;97017.59;;;14.36;100.00
52441;BME280;39611;46.062;8.950;2022-10-16T05:06:48;97017.03;;;14.39;100.00
52441;BME280;39611;46.062;8.950;2022-10-16T05:09:14;97023.25;;;14.29;100.00
52441;BME280;39611;46.062;8.950;2022-10-16T05:11:41;97021.91;;;14.32;100.00
52441;BME280;39611;46.062;8.950;2022-10-16T05:14:07;97024.88;;;14.30;100.00
52441;BME280;39611;46.062;8.950;2022-10-16T05:16:33;97023.50;;;14.33;100.00
52441;BME280;39611;46.062;8.950;2022-10-16T05:19:00;97026.75;;;14.30;100.00
52441;BME280;39611;46.062;8.950;2022-10-16T05:21:46;97022.03;;;14.22;100.00
52441;BME280;39611;46.062;8.950;2022-10-16T05:24:13;97021.56;;;14.14;100.00
52441;BME280;39611;46.062;8.950;2022-10-16T05:26:40;97023.63;;;14.23;100.00
52441;BME280;39611;46.062;8.950;2022-10-16T05:29:06;97034.22;;;14.28;100.00
52441;BME280;39611;46.062;8.950;2022-10-16T05:31:33;97033.91;;;14.29;100.00
52441;BME280;39611;46.062;8.950;2022-10-16T05:34:00;97030.97;;;14.31;100.00
52441;BME280;39611;46.062;8.950;2022-10-16T05:36:26;97038.38;;;14.34;100.00
52441;BME280;39611;46.062;8.950;2022-10-16T05:38:53;97034.16;;;14.33;100.00
52441;BME280;39611;46.062;8.950;2022-10-16T05:41:19;97030.91;;;14.36;100.00
52441;BME280;39611;46.062;8.950;2022-10-16T05:43:48;97035.44;;;14.35;100.00
52441;BME280;39611;46.062;8.950;2022-10-16T05:46:15;97035.16;;;14.37;100.00
52441;BME280;39611;46.062;8.950;2022-10-16T05:48:42;97031.66;;;14.41;100.00
52441;BME280;39611;46.062;8.950;2022-10-16T05:51:10;97036.97;;;14.41;100.00
52441;BME280;39611;46.062;8.950;2022-10-16T05:53:38;97042.03;;;14.43;100.00
52441;BME280;39611;46.062;8.950;2022-10-16T05:56:07;97044.69;;;14.43;100.00
52441;BME280;39611;46.062;8.950;2022-10-16T05:58:36;97048.97;;;14.39;100.00
52441;BME280;39611;46.062;8.950;2022-10-16T06:01:06;97054.25;;;14.44;100.00
52441;BME280;39611;46.062;8.950;2022-10-16T06:03:33;97053.72;;;14.42;100.00
52441;BME280;39611;46.062;8.950;2022-10-16T06:06:11;97055.53;;;14.47;100.00
52441;BME280;39611;46.062;8.950;2022-10-16T06:08:38;97058.22;;;14.47;100.00
52441;BME280;39611;46.062;8.950;2022-10-16T06:11:07;97063.25;;;14.48;100.00
52441;BME280;39611;46.062;8.950;2022-10-16T06:13:34;97061.38;;;14.49;100.00
52441;BME280;39611;46.062;8.950;2022-10-16T06:16:01;97063.31;;;14.43;100.00
52441;BME280;39611;46.062;8.950;2022-10-16T06:18:29;97069.47;;;14.38;100.00
52441;BME280;39611;46.062;8.950;2022-10-16T06:20:56;97072.03;;;14.49;100.00
52441;BME280;39611;46.062;8.950;2022-10-16T06:23:23;97070.69;;;14.51;100.00
52441;BME280;39611;46.062;8.950;2022-10-16T06:25:50;97075.19;;;14.56;100.00
52441;BME280;39611;46.062;8.950;2022-10-16T06:28:16;97076.75;;;14.57;100.00
52441;BME280;39611;46.062;8.950;2022-10-16T06:30:43;97086.34;;;14.58;100.00
52441;BME280;39611;46.062;8.950;2022-10-16T06:33:10;97090.59;;;14.59;100.00
52441;BME280;39611;46.062;8.950;2022-10-16T06:35:37;97095.69;;;14.55;100.00
52441;BME280;39611;46.062;8.950;2022-10-16T06:38:03;97095.34;;;14.62;100.00
52441;BME280;39611;46.062;8.950;2022-10-16T06:40:29;97102.50;;;14.67;100.00
52441;BME280;39611;46.062;8.950;2022-10-16T06:42:56;97100.34;;;14.69;100.00
52441;BME280;39611;46.062;8.950;2022-10-16T06:45:23;97099.19;;;14.75;100.00
52441;BME280;39611;46.062;8.950;2022-10-16T06:47:49;97104.53;;;14.75;100.00
52441;BME280;39611;46.062;8.950;2022-10-16T06:50:16;97100.22;;;14.79;100.00
52441;BME280;39611;46.062;8.950;2022-10-16T06:52:42;97106.56;;;14.83;100.00
52441;BME280;39611;46.062;8.950;2022-10-16T06:55:08;97115.31;;;14.83;100.00
52441;BME280;39611;46.062;8.950;2022-10-16T06:57:35;97115.84;;;14.85;100.00
52441;BME280;39611;46.062;8.950;2022-10-16T07:00:02;97116.09;;;14.89;100.00
52441;BME280;39611;46.062;8.950;2022-10-16T07:02:28;97114.44;;;14.93;100.00
52441;BME280;39611;46.062;8.950;2022-10-16T07:04:55;97120.13;;;14.87;100.00
52441;BME280;39611;46.062;8.950;2022-10-16T07:07:23;97118.28;;;14.82;100.00
52441;BME280;39611;46.062;8.950;2022-10-16T07:09:50;97127.22;;;14.91;100.00
52441;BME280;39611;46.062;8.950;2022-10-16T07:12:17;97132.75;;;15.00;100.00
52441;BME280;39611;46.062;8.950;2022-10-16T07:14:43;97131.38;;;15.02;100.00
52441;BME280;39611;46.062;8.950;2022-10-16T07:17:10;97140.38;;;15.06;100.00
52441;BME280;39611;46.062;8.950;2022-10-16T07:19:36;97146.44;;;15.12;100.00
52441;BME280;39611;46.062;8.950;2022-10-16T07:22:03;97147.25;;;15.13;100.00
52441;BME280;39611;46.062;8.950;2022-10-16T07:24:29;97143.28;;;15.10;100.00
52441;BME280;39611;46.062;8.950;2022-10-16T07:26:56;97149.66;;;15.09;100.00
52441;BME280;39611;46.062;8.950;2022-10-16T07:29:22;97152.00;;;15.16;100.00
52441;BME280;39611;46.062;8.950;2022-10-16T07:31:49;97153.88;;;15.15;100.00
52441;BME280;39611;46.062;8.950;2022-10-16T07:34:17;97157.25;;;15.21;100.00
52441;BME280;39611;46.062;8.950;2022-10-16T07:36:47;97159.13;;;15.20;100.00
52441;BME280;39611;46.062;8.950;2022-10-16T07:39:14;97159.94;;;15.21;100.00
52441;BME280;39611;46.062;8.950;2022-10-16T07:41:40;97166.91;;;15.17;100.00
52441;BME280;39611;46.062;8.950;2022-10-16T07:44:06;97158.25;;;15.25;100.00
52441;BME280;39611;46.062;8.950;2022-10-16T07:46:33;97164.03;;;15.32;100.00
52441;BME280;39611;46.062;8.950;2022-10-16T07:49:03;97163.97;;;15.37;100.00
52441;BME280;39611;46.062;8.950;2022-10-16T07:51:29;97170.34;;;15.41;100.00
52441;BME280;39611;46.062;8.950;2022-10-16T07:53:56;97171.41;;;15.40;100.00
52441;BME280;39611;46.062;8.950;2022-10-16T07:56:22;97176.78;;;15.35;100.00
52441;BME280;39611;46.062;8.950;2022-10-16T07:58:49;97173.47;;;15.43;100.00
52441;BME280;39611;46.062;8.950;2022-10-16T08:01:17;97181.22;;;15.45;100.00
52441;BME280;39611;46.062;8.950;2022-10-16T08:03:46;97175.53;;;15.51;100.00
52441;BME280;39611;46.062;8.950;2022-10-16T08:06:13;97185.03;;;15.58;100.00
52441;BME280;39611;46.062;8.950;2022-10-16T08:08:39;97179.13;;;15.61;100.00
52441;BME280;39611;46.062;8.950;2022-10-16T08:11:06;97177.47;;;15.65;100.00
52441;BME280;39611;46.062;8.950;2022-10-16T08:13:33;97186.00;;;15.67;100.00
52441;BME280;39611;46.062;8.950;2022-10-16T08:16:00;97188.09;;;15.70;100.00
52441;BME280;39611;46.062;8.950;2022-10-16T08:18:27;97186.75;;;15.72;100.00
52441;BME280;39611;46.062;8.950;2022-10-16T08:20:57;97188.31;;;15.73;100.00
52441;BME280;39611;46.062;8.950;2022-10-16T08:23:25;97195.47;;;15.78;100.00
52441;BME280;39611;46.062;8.950;2022-10-16T08:25:53;97192.78;;;15.78;100.00
52441;BME280;39611;46.062;8.950;2022-10-16T08:28:20;97191.69;;;15.79;100.00
52441;BME280;39611;46.062;8.950;2022-10-16T08:30:47;97188.44;;;15.82;100.00
52441;BME280;39611;46.062;8.950;2022-10-16T08:33:14;97190.56;;;15.85;100.00
52441;BME280;39611;46.062;8.950;2022-10-16T08:35:40;97195.91;;;15.85;100.00
52441;BME280;39611;46.062;8.950;2022-10-16T08:38:07;97197.47;;;15.86;100.00
52441;BME280;39611;46.062;8.950;2022-10-16T08:40:36;97203.31;;;15.88;100.00
52441;BME280;39611;46.062;8.950;2022-10-16T08:48:48;97203.16;;;15.99;100.00
52441;BME280;39611;46.062;8.950;2022-10-16T08:51:20;97209.38;;;15.94;100.00
52441;BME280;39611;46.062;8.950;2022-10-16T08:53:59;97209.09;;;15.96;100.00
52441;BME280;39611;46.062;8.950;2022-10-16T08:56:27;97207.66;;;16.03;100.00
52441;BME280;39611;46.062;8.950;2022-10-16T08:58:54;97207.06;;;16.06;100.00
52441;BME280;39611;46.062;8.950;2022-10-16T09:01:40;97209.44;;;16.08;100.00
52441;BME280;39611;46.062;8.950;2022-10-16T09:04:43;97205.09;;;16.12;100.00
52441;BME280;39611;46.062;8.950;2022-10-16T09:13:26;97208.69;;;16.21;100.00
52441;BME280;39611;46.062;8.950;2022-10-16T09:16:14;97210.28;;;16.22;100.00
52441;BME280;39611;46.062;8.950;2022-10-16T09:21:31;97213.47;;;16.24;100.00
52441;BME280;39611;46.062;8.950;2022-10-16T09:24:00;97219.78;;;16.28;98.77
52441;BME280;39611;46.062;8.950;2022-10-16T09:26:31;97219.19;;;16.31;100.00
52441;BME280;39611;46.062;8.950;2022-10-16T09:28:57;97219.19;;;16.31;100.00
52441;BME280;39611;46.062;8.950;2022-10-16T09:31:23;97221.16;;;16.26;98.67
52441;BME280;39611;46.062;8.950;2022-10-16T09:33:54;97223.56;;;16.27;96.28
52441;BME280;39611;46.062;8.950;2022-10-16T09:36:23;97223.16;;;16.34;95.13
52441;BME280;39611;46.062;8.950;2022-10-16T09:39:04;97221.22;;;16.40;93.84
52441;BME280;39611;46.062;8.950;2022-10-16T09:41:34;97231.84;;;16.45;95.15
52441;BME280;39611;46.062;8.950;2022-10-16T09:44:06;97232.22;;;16.52;96.66
52441;BME280;39611;46.062;8.950;2022-10-16T09:46:42;97222.84;;;16.54;98.40
52441;BME280;39611;46.062;8.950;2022-10-16T09:49:25;97225.72;;;16.58;97.95
52441;BME280;39611;46.062;8.950;2022-10-16T09:52:11;97227.50;;;16.63;98.60
52441;BME280;39611;46.062;8.950;2022-10-16T09:54:49;97222.88;;;16.68;99.47
52441;BME280;39611;46.062;8.950;2022-10-16T09:57:15;97230.31;;;16.71;99.57
52441;BME280;39611;46.062;8.950;2022-10-16T09:59:49;97227.63;;;16.71;99.99
52441;BME280;39611;46.062;8.950;2022-10-16T10:02:18;97227.03;;;16.74;100.00
52441;BME280;39611;46.062;8.950;2022-10-16T10:04:50;97225.47;;;16.73;100.00
52441;BME280;39611;46.062;8.950;2022-10-16T10:07:23;97224.50;;;16.83;100.00
52441;BME280;39611;46.062;8.950;2022-10-16T10:09:52;97224.72;;;16.87;100.00
52441;BME280;39611;46.062;8.950;2022-10-16T10:12:20;97223.13;;;16.86;100.00
52441;BME280;39611;46.062;8.950;2022-10-16T10:14:56;97221.25;;;16.86;96.77
52441;BME280;39611;46.062;8.950;2022-10-16T10:17:27;97223.03;;;16.91;98.05
52441;BME280;39611;46.062;8.950;2022-10-16T10:19:59;97216.03;;;16.95;97.93
52441;BME280;39611;46.062;8.950;2022-10-16T10:25:14;97216.22;;;16.98;96.93
52441;BME280;39611;46.062;8.950;2022-10-16T10:30:43;97205.56;;;17.12;96.45
52441;BME280;39611;46.062;8.950;2022-10-16T10:38:26;97207.03;;;17.18;93.97
52441;BME280;39611;46.062;8.950;2022-10-16T10:41:05;97200.31;;;17.07;94.75
52441;BME280;39611;46.062;8.950;2022-10-16T10:46:45;97192.09;;;17.17;95.72
52441;BME280;39611;46.062;8.950;2022-10-16T11:03:40;97179.78;;;17.44;92.18
52441;BME280;39611;46.062;8.950;2022-10-16T11:06:26;97177.59;;;17.46;92.00
52441;BME280;39611;46.062;8.950;2022-10-16T11:09:11;97182.34;;;17.49;90.31
52441;BME280;39611;46.062;8.950;2022-10-16T11:11:43;97176.38;;;17.52;89.23
52441;BME280;39611;46.062;8.950;2022-10-16T11:14:34;97174.22;;;17.54;90.37
52441;BME280;39611;46.062;8.950;2022-10-16T11:17:10;97178.34;;;17.60;89.01
52441;BME280;39611;46.062;8.950;2022-10-16T11:19:49;97175.06;;;17.63;87.33
52441;BME280;39611;46.062;8.950;2022-10-16T11:22:36;97178.72;;;17.67;86.80
52441;BME280;39611;46.062;8.950;2022-10-16T11:27:56;97176.38;;;17.80;87.53
52441;BME280;39611;46.062;8.950;2022-10-16T11:30:27;97174.03;;;17.87;88.25
52441;BME280;39611;46.062;8.950;2022-10-16T11:35:47;97165.38;;;18.04;89.54
52441;BME280;39611;46.062;8.950;2022-10-16T11:38:29;97162.13;;;18.16;90.30
52441;BME280;39611;46.062;8.950;2022-10-16T11:41:02;97171.44;;;18.18;87.06
52441;BME280;39611;46.062;8.950;2022-10-16T11:43:48;97167.84;;;18.23;86.82
52441;BME280;39611;46.062;8.950;2022-10-16T11:46:21;97167.22;;;18.26;85.31
52441;BME280;39611;46.062;8.950;2022-10-16T11:52:26;97164.91;;;18.33;83.85
52441;BME280;39611;46.062;8.950;2022-10-16T11:54:59;97156.75;;;18.38;81.88
52441;BME280;39611;46.062;8.950;2022-10-16T11:57:39;97168.31;;;18.47;81.01
52441;BME280;39611;46.062;8.950;2022-10-16T12:00:25;97157.41;;;18.44;85.44
52441;BME280;39611;46.062;8.950;2022-10-16T12:03:25;97153.34;;;18.46;84.28
52441;BME280;39611;46.062;8.950;2022-10-16T12:08:28;97149.09;;;18.45;80.37
52441;BME280;39611;46.062;8.950;2022-10-16T12:13:51;97153.34;;;18.46;82.08
52441;BME280;39611;46.062;8.950;2022-10-16T12:16:22;97147.47;;;18.44;79.86
52441;BME280;39611;46.062;8.950;2022-10-16T12:19:03;97150.78;;;18.41;79.64
52441;BME280;39611;46.062;8.950;2022-10-16T12:21:35;97145.91;;;18.43;81.44
52441;BME280;39611;46.062;8.950;2022-10-16T12:24:03;97145.66;;;18.53;80.62
52441;BME280;39611;46.062;8.950;2022-10-16T12:26:37;97144.88;;;18.53;78.57
52441;BME280;39611;46.062;8.950;2022-10-16T12:31:47;97147.72;;;18.56;80.23
52441;BME280;39611;46.062;8.950;2022-10-16T12:36:49;97145.28;;;18.46;82.09
52441;BME280;39611;46.062;8.950;2022-10-16T12:39:22;97149.25;;;18.49;82.11
52441;BME280;39611;46.062;8.950;2022-10-16T12:42:01;97143.72;;;18.45;83.77
52441;BME280;39611;46.062;8.950;2022-10-16T12:44:33;97143.25;;;18.43;83.21
52441;BME280;39611;46.062;8.950;2022-10-16T12:47:00;97142.81;;;18.50;84.70
52441;BME280;39611;46.062;8.950;2022-10-16T12:49:37;97150.34;;;18.48;84.53
52441;BME280;39611;46.062;8.950;2022-10-16T12:52:28;97147.69;;;18.48;84.10
52441;BME280;39611;46.062;8.950;2022-10-16T12:54:56;97146.16;;;18.55;79.89
52441;BME280;39611;46.062;8.950;2022-10-16T13:00:26;97146.63;;;18.58;80.05
52441;BME280;39611;46.062;8.950;2022-10-16T13:03:26;97144.09;;;18.52;81.86
52441;BME280;39611;46.062;8.950;2022-10-16T13:06:26;97143.72;;;18.45;81.69
52441;BME280;39611;46.062;8.950;2022-10-16T13:23:13;97159.31;;;18.43;83.55
52441;BME280;39611;46.062;8.950;2022-10-16T13:28:32;97157.81;;;18.60;76.72
52441;BME280;39611;46.062;8.950;2022-10-16T13:31:00;97153.44;;;18.64;77.38
52441;BME280;39611;46.062;8.950;2022-10-16T13:33:37;97159.41;;;18.61;78.47
52441;BME280;39611;46.062;8.950;2022-10-16T13:36:06;97153.06;;;18.56;81.95
52441;BME280;39611;46.062;8.950;2022-10-16T13:38:34;97151.00;;;18.53;79.83
52441;BME280;39611;46.062;8.950;2022-10-16T13:41:13;97161.25;;;18.51;79.86
52441;BME280;39611;46.062;8.950;2022-10-16T13:46:12;97156.25;;;18.59;78.04
52441;BME280;39611;46.062;8.950;2022-10-16T13:48:39;97158.91;;;18.59;78.52
52441;BME280;39611;46.062;8.950;2022-10-16T13:51:10;97169.03;;;18.62;79.16
52441;BME280;39611;46.062;8.950;2022-10-16T13:53:38;97169.78;;;18.53;82.04
52441;BME280;39611;46.062;8.950;2022-10-16T13:56:09;97170.25;;;18.55;80.97
52441;BME280;39611;46.062;8.950;2022-10-16T13:58:36;97171.66;;;18.53;81.58
52441;BME280;39611;46.062;8.950;2022-10-16T14:01:16;97169.91;;;18.48;79.20
52441;BME280;39611;46.062;8.950;2022-10-16T14:03:45;97176.81;;;18.49;80.23
52441;BME280;39611;46.062;8.950;2022-10-16T14:06:16;97180.25;;;18.41;84.95
52441;BME280;39611;46.062;8.950;2022-10-16T14:08:48;97173.75;;;18.33;84.31
52441;BME280;39611;46.062;8.950;2022-10-16T14:11:21;97174.56;;;18.34;82.88
52441;BME280;39611;46.062;8.950;2022-10-16T14:13:50;97176.75;;;18.32;82.39
52441;BME280;39611;46.062;8.950;2022-10-16T14:16:27;97179.53;;;18.27;85.15
52441;BME280;39611;46.062;8.950;2022-10-16T14:19:05;97171.63;;;18.22;85.73
52441;BME280;39611;46.062;8.950;2022-10-16T14:21:37;97167.56;;;18.24;84.83
52441;BME280;39611;46.062;8.950;2022-10-16T14:24:13;97179.06;;;18.25;82.75
52441;BME280;39611;46.062;8.950;2022-10-16T14:26:43;97176.75;;;18.32;81.44
52441;BME280;39611;46.062;8.950;2022-10-16T14:29:19;97181.78;;;18.33;82.53
52441;BME280;39611;46.062;8.950;2022-10-16T14:32:00;97184.28;;;18.30;83.11
52441;BME280;39611;46.062;8.950;2022-10-16T14:34:35;97183.31;;;18.26;83.62
52441;BME280;39611;46.062;8.950;2022-10-16T14:37:13;97185.50;;;18.24;86.18
52441;BME280;39611;46.062;8.950;2022-10-16T14:39:49;97185.13;;;18.17;87.36
52441;BME280;39611;46.062;8.950;2022-10-16T14:42:16;97183.19;;;18.08;87.74